createdAt,value
2019-06-20T00:00:45.860Z,15.70
2019-06-20T00:03:15.429Z,15.70
2019-06-20T00:05:45.315Z,15.70
2019-06-20T00:08:14.791Z,15.70
2019-06-20T00:10:44.395Z,15.60
2019-06-20T00:13:13.925Z,15.60
2019-06-20T00:15:43.481Z,15.60
2019-06-20T00:18:12.863Z,15.60
2019-06-20T00:20:42.372Z,15.60
2019-06-20T00:23:11.910Z,15.50
2019-06-20T00:25:41.311Z,15.50
2019-06-20T00:28:10.711Z,15.50
2019-06-20T00:30:40.806Z,15.50
2019-06-20T00:33:10.238Z,15.50
2019-06-20T00:35:39.621Z,15.50
2019-06-20T00:38:09.072Z,15.50
2019-06-20T00:40:38.469Z,15.50
2019-06-20T00:43:16.886Z,15.50
2019-06-20T00:45:38.975Z,15.50
2019-06-20T00:48:08.473Z,15.50
2019-06-20T00:50:38.056Z,15.50
2019-06-20T00:53:07.507Z,15.50
2019-06-20T00:55:37.029Z,15.40
2019-06-20T00:58:06.514Z,15.40
2019-06-20T01:00:35.898Z,15.40
2019-06-20T01:03:05.645Z,15.30
2019-06-20T01:05:35.027Z,15.30
2019-06-20T01:08:04.430Z,15.30
2019-06-20T01:10:33.880Z,15.30
2019-06-20T01:13:03.269Z,15.30
2019-06-20T01:15:32.666Z,15.30
2019-06-20T01:18:02.080Z,15.30
2019-06-20T01:20:31.462Z,15.20
2019-06-20T01:23:00.869Z,15.20
2019-06-20T01:25:37.781Z,15.20
2019-06-20T01:28:07.797Z,15.20
2019-06-20T01:30:37.331Z,15.10
2019-06-20T01:33:09.950Z,15.10
2019-06-20T01:35:39.332Z,15.20
2019-06-20T01:38:08.789Z,15.20
2019-06-20T01:40:38.315Z,15.20
2019-06-20T01:43:07.726Z,15.20
2019-06-20T01:45:37.104Z,15.20
2019-06-20T01:48:06.576Z,15.10
2019-06-20T01:50:35.961Z,15.20
2019-06-20T01:53:05.387Z,15.20
2019-06-20T01:55:34.762Z,15.20
2019-06-20T01:58:04.314Z,15.20
2019-06-20T02:00:50.966Z,15.20
2019-06-20T02:03:21.461Z,15.30
2019-06-20T02:05:50.926Z,15.40
2019-06-20T02:08:20.732Z,15.40
2019-06-20T02:10:50.126Z,15.40
2019-06-20T02:13:19.585Z,15.40
2019-06-20T02:15:49.051Z,15.40
2019-06-20T02:18:18.426Z,15.50
2019-06-20T02:20:57.697Z,15.50
2019-06-20T02:23:27.280Z,15.60
2019-06-20T02:25:56.661Z,15.60
2019-06-20T02:28:26.070Z,15.60
2019-06-20T02:30:55.526Z,15.60
2019-06-20T02:33:24.930Z,15.70
2019-06-20T02:35:54.516Z,15.70
2019-06-20T02:38:23.986Z,15.70
2019-06-20T02:40:53.359Z,15.80
2019-06-20T02:43:23.448Z,15.80
2019-06-20T02:45:52.938Z,15.80
2019-06-20T02:48:22.304Z,15.80
2019-06-20T02:50:51.709Z,15.80
2019-06-20T02:53:21.230Z,15.90
2019-06-20T02:55:50.662Z,15.90
2019-06-20T02:58:20.043Z,15.90
2019-06-20T03:00:58.255Z,15.90
2019-06-20T03:03:28.838Z,15.90
2019-06-20T03:05:59.128Z,15.90
2019-06-20T03:08:29.325Z,15.90
2019-06-20T03:10:58.782Z,15.90
2019-06-20T03:13:28.418Z,15.90
2019-06-20T03:15:57.783Z,15.80
2019-06-20T03:18:27.245Z,15.80
2019-06-20T03:20:56.713Z,15.80
2019-06-20T03:23:26.625Z,15.70
2019-06-20T03:25:56.022Z,15.70
2019-06-20T03:28:25.478Z,15.70
2019-06-20T03:30:54.894Z,15.70
2019-06-20T03:33:24.356Z,15.70
2019-06-20T03:35:53.728Z,15.60
2019-06-20T03:38:23.216Z,15.60
2019-06-20T03:40:52.593Z,15.60
2019-06-20T03:43:22.005Z,15.70
2019-06-20T03:45:51.408Z,15.70
2019-06-20T03:48:22.348Z,15.80
2019-06-20T03:50:51.879Z,15.80
2019-06-20T03:53:21.296Z,15.90
2019-06-20T03:55:50.757Z,15.90
2019-06-20T03:58:20.211Z,16.00
2019-06-20T04:00:49.621Z,16.00
2019-06-20T04:03:19.092Z,16.10
2019-06-20T04:05:48.478Z,16.20
2019-06-20T04:08:17.859Z,16.20
2019-06-20T04:10:47.327Z,16.30
2019-06-20T04:13:16.744Z,16.30
2019-06-20T04:15:46.127Z,16.30
2019-06-20T04:18:15.504Z,16.40
2019-06-20T04:20:44.888Z,16.40
2019-06-20T04:23:14.307Z,16.40
2019-06-20T04:25:43.688Z,16.40
2019-06-20T04:28:13.093Z,16.40
2019-06-20T04:30:42.499Z,16.40
2019-06-20T04:33:11.910Z,16.50
2019-06-20T04:35:41.317Z,16.50
2019-06-20T04:38:10.714Z,16.50
2019-06-20T04:40:40.123Z,16.50
2019-06-20T04:43:09.520Z,16.50
2019-06-20T04:45:46.605Z,16.50
2019-06-20T04:48:15.989Z,16.50
2019-06-20T04:50:45.522Z,16.60
2019-06-20T04:53:14.926Z,16.70
2019-06-20T04:55:44.329Z,16.70
2019-06-20T04:58:13.736Z,16.70
2019-06-20T05:00:43.206Z,16.80
2019-06-20T05:03:12.616Z,16.80
2019-06-20T05:05:42.065Z,16.80
2019-06-20T05:08:11.488Z,16.90
2019-06-20T05:10:40.950Z,16.90
2019-06-20T05:13:10.344Z,17.00
2019-06-20T05:15:52.205Z,17.00
2019-06-20T05:18:11.014Z,17.00
2019-06-20T05:20:40.422Z,17.20
2019-06-20T05:23:09.821Z,17.20
2019-06-20T05:25:39.231Z,17.40
2019-06-20T05:28:08.628Z,17.60
2019-06-20T05:30:38.084Z,17.60
2019-06-20T05:33:07.489Z,17.50
2019-06-20T05:35:36.952Z,17.60
2019-06-20T05:38:06.363Z,17.50
2019-06-20T05:40:37.268Z,17.50
2019-06-20T05:43:06.837Z,17.50
2019-06-20T05:45:36.301Z,17.50
2019-06-20T05:48:06.156Z,17.50
2019-06-20T05:50:35.537Z,17.50
2019-06-20T05:53:05.079Z,17.60
2019-06-20T05:55:35.615Z,17.60
2019-06-20T05:58:05.061Z,17.60
2019-06-20T06:00:36.104Z,17.60
2019-06-20T06:03:07.126Z,17.80
2019-06-20T06:05:37.149Z,17.70
2019-06-20T06:08:06.834Z,17.80
2019-06-20T06:10:36.241Z,17.80
2019-06-20T06:13:06.167Z,17.80
2019-06-20T06:15:35.571Z,17.80
2019-06-20T06:18:05.047Z,17.80
2019-06-20T06:20:34.438Z,17.80
2019-06-20T06:23:03.922Z,17.90
2019-06-20T06:25:33.385Z,17.90
2019-06-20T06:28:02.791Z,18.00
2019-06-20T06:30:32.403Z,18.00
2019-06-20T06:33:01.807Z,18.10
2019-06-20T06:35:31.358Z,18.10
2019-06-20T06:38:00.741Z,18.10
2019-06-20T06:40:30.281Z,18.00
2019-06-20T06:42:59.708Z,18.00
2019-06-20T06:45:29.298Z,18.10
2019-06-20T06:47:58.740Z,18.00
2019-06-20T06:50:28.350Z,18.00
2019-06-20T06:52:57.753Z,18.10
2019-06-20T06:55:27.764Z,18.00
2019-06-20T06:57:57.541Z,18.10
2019-06-20T07:00:27.138Z,18.20
2019-06-20T07:02:56.517Z,18.30
2019-06-20T07:05:25.977Z,18.40
2019-06-20T07:07:55.452Z,18.50
2019-06-20T07:10:25.149Z,18.60
2019-06-20T07:12:54.659Z,18.60
2019-06-20T07:15:24.370Z,18.70
2019-06-20T07:17:53.777Z,18.80
2019-06-20T07:20:23.412Z,18.90
2019-06-20T07:22:53.183Z,19.10
2019-06-20T07:25:22.684Z,19.00
2019-06-20T07:27:52.097Z,19.00
2019-06-20T07:30:21.817Z,19.00
2019-06-20T07:32:51.356Z,18.90
2019-06-20T07:35:21.225Z,18.80
2019-06-20T07:37:50.648Z,18.70
2019-06-20T07:40:20.290Z,18.60
2019-06-20T07:42:49.759Z,18.70
2019-06-20T07:45:27.307Z,18.70
2019-06-20T07:47:57.145Z,18.80
2019-06-20T07:50:26.694Z,18.80
2019-06-20T07:53:02.497Z,18.80
2019-06-20T07:55:28.184Z,18.70
2019-06-20T07:57:57.952Z,18.80
2019-06-20T08:00:27.929Z,18.90
2019-06-20T08:02:57.327Z,18.90
2019-06-20T08:05:26.833Z,18.90
2019-06-20T08:07:56.409Z,19.00
2019-06-20T08:10:26.010Z,19.30
2019-06-20T08:12:55.408Z,19.70
2019-06-20T08:15:25.297Z,20.10
2019-06-20T08:17:54.806Z,20.40
2019-06-20T08:20:26.341Z,20.50
2019-06-20T08:22:55.722Z,20.60
2019-06-20T08:25:25.338Z,20.60
2019-06-20T08:27:55.994Z,20.60
2019-06-20T08:30:31.960Z,20.60
2019-06-20T08:33:04.353Z,20.70
2019-06-20T08:35:33.535Z,20.90
2019-06-20T08:38:05.620Z,21.00
2019-06-20T08:40:42.759Z,21.00
2019-06-20T08:43:12.293Z,21.10
2019-06-20T08:45:43.715Z,21.30
2019-06-20T08:48:13.270Z,21.60
2019-06-20T08:50:43.501Z,22.00
2019-06-20T08:53:12.873Z,22.40
2019-06-20T08:55:42.348Z,22.60
2019-06-20T08:58:11.883Z,22.80
2019-06-20T09:00:42.159Z,23.10
2019-06-20T09:03:11.589Z,23.10
2019-06-20T09:05:41.175Z,22.90
2019-06-20T09:08:11.694Z,22.50
2019-06-20T09:10:42.924Z,22.20
2019-06-20T09:13:13.681Z,21.90
2019-06-20T09:15:44.474Z,21.50
2019-06-20T09:18:13.989Z,21.40
2019-06-20T09:20:43.560Z,21.30
2019-06-20T09:23:13.011Z,21.30
2019-06-20T09:25:42.631Z,21.40
2019-06-20T09:28:12.172Z,21.40
2019-06-20T09:30:41.748Z,21.40
2019-06-20T09:33:11.181Z,21.30
2019-06-20T09:35:40.644Z,21.20
2019-06-20T09:38:10.195Z,21.00
2019-06-20T09:40:39.738Z,20.90
2019-06-20T09:43:09.357Z,20.80
2019-06-20T09:45:38.911Z,20.70
2019-06-20T09:48:08.383Z,20.60
2019-06-20T09:50:37.773Z,20.60
2019-06-20T09:53:07.311Z,20.50
2019-06-20T09:55:36.927Z,20.50
2019-06-20T09:58:07.068Z,20.60
2019-06-20T10:00:37.825Z,20.80
2019-06-20T10:03:08.256Z,21.00
2019-06-20T10:05:37.750Z,21.30
2019-06-20T10:08:07.311Z,21.40
2019-06-20T10:10:38.391Z,21.60
2019-06-20T10:13:07.946Z,21.50
2019-06-20T10:15:39.041Z,21.50
2019-06-20T10:18:09.126Z,21.50
2019-06-20T10:20:39.403Z,21.40
2019-06-20T10:23:09.193Z,21.30
2019-06-20T10:25:39.160Z,21.20
2019-06-20T10:28:08.873Z,21.20
2019-06-20T10:30:38.356Z,21.20
2019-06-20T10:33:07.922Z,21.40
2019-06-20T10:35:37.319Z,21.50
2019-06-20T10:38:06.789Z,21.80
2019-06-20T10:40:36.341Z,22.00
2019-06-20T10:43:06.143Z,22.20
2019-06-20T10:45:36.352Z,22.40
2019-06-20T10:48:06.274Z,22.40
2019-06-20T10:50:35.743Z,22.40
2019-06-20T10:53:05.726Z,22.40
2019-06-20T10:55:35.356Z,22.50
2019-06-20T10:58:04.939Z,22.60
2019-06-20T11:00:34.342Z,22.60
2019-06-20T11:03:03.959Z,22.60
2019-06-20T11:05:33.351Z,22.70
2019-06-20T11:08:02.750Z,22.80
2019-06-20T11:10:32.872Z,22.90
2019-06-20T11:13:02.410Z,22.70
2019-06-20T11:15:32.407Z,22.60
2019-06-20T11:18:02.006Z,22.50
2019-06-20T11:20:31.748Z,22.40
2019-06-20T11:23:01.211Z,22.40
2019-06-20T11:25:30.813Z,22.30
2019-06-20T11:28:00.230Z,22.20
2019-06-20T11:30:44.924Z,22.00
2019-06-20T11:33:03.209Z,22.00
2019-06-20T11:35:33.245Z,21.80
2019-06-20T11:38:02.704Z,21.70
2019-06-20T11:40:32.288Z,21.70
2019-06-20T11:43:01.684Z,21.70
2019-06-20T11:45:31.235Z,21.60
2019-06-20T11:48:00.657Z,21.50
2019-06-20T11:50:30.072Z,21.50
2019-06-20T11:52:59.464Z,21.40
2019-06-20T11:55:28.991Z,21.40
2019-06-20T11:57:58.475Z,21.40
2019-06-20T12:00:28.660Z,21.50
2019-06-20T12:02:58.085Z,21.60
2019-06-20T12:05:27.606Z,21.90
2019-06-20T12:07:57.031Z,22.00
2019-06-20T12:10:26.501Z,22.20
2019-06-20T12:12:55.901Z,22.10
2019-06-20T12:15:25.515Z,22.20
2019-06-20T12:17:54.905Z,22.30
2019-06-20T12:20:24.649Z,22.60
2019-06-20T12:22:54.141Z,22.80
2019-06-20T12:25:24.274Z,23.00
2019-06-20T12:27:53.723Z,23.10
2019-06-20T12:30:23.843Z,23.20
2019-06-20T12:32:53.265Z,23.20
2019-06-20T12:35:22.809Z,23.30
2019-06-20T12:37:52.322Z,23.30
2019-06-20T12:40:23.365Z,23.30
2019-06-20T12:42:52.761Z,23.40
2019-06-20T12:45:22.397Z,23.50
2019-06-20T12:47:51.795Z,23.50
2019-06-20T12:50:21.710Z,23.30
2019-06-20T12:52:51.373Z,23.20
2019-06-20T12:55:20.921Z,23.00
2019-06-20T12:57:50.335Z,23.00
2019-06-20T13:00:22.329Z,23.00
2019-06-20T13:02:51.740Z,23.00
2019-06-20T13:05:22.834Z,23.00
2019-06-20T13:07:52.395Z,23.00
2019-06-20T13:10:22.774Z,23.20
2019-06-20T13:12:52.169Z,23.20
2019-06-20T13:15:22.190Z,23.20
2019-06-20T13:17:51.787Z,23.20
2019-06-20T13:20:22.187Z,23.10
2019-06-20T13:22:51.667Z,23.10
2019-06-20T13:25:21.050Z,23.00
2019-06-20T13:27:50.836Z,22.90
2019-06-20T13:30:23.122Z,22.70
2019-06-20T13:32:52.543Z,22.60
2019-06-20T13:35:22.199Z,22.50
2019-06-20T13:37:51.661Z,22.40
2019-06-20T13:40:21.777Z,22.40
2019-06-20T13:42:54.455Z,22.50
2019-06-20T13:45:26.037Z,22.70
2019-06-20T13:47:55.583Z,22.80
2019-06-20T13:50:25.994Z,23.00
2019-06-20T13:52:56.007Z,22.90
2019-06-20T13:55:25.437Z,22.70
2019-06-20T13:57:54.888Z,22.60
2019-06-20T14:00:25.990Z,22.40
2019-06-20T14:02:55.447Z,22.40
2019-06-20T14:05:24.954Z,22.20
2019-06-20T14:07:55.967Z,22.10
2019-06-20T14:10:25.723Z,22.00
2019-06-20T14:12:55.245Z,21.90
2019-06-20T14:15:24.842Z,21.90
2019-06-20T14:17:54.333Z,21.70
2019-06-20T14:20:25.431Z,21.70
2019-06-20T14:22:54.879Z,21.60
2019-06-20T14:25:24.645Z,21.40
2019-06-20T14:27:54.264Z,21.20
2019-06-20T14:30:25.609Z,21.10
2019-06-20T14:32:56.032Z,20.90
2019-06-20T14:35:25.758Z,20.70
2019-06-20T14:37:55.676Z,20.60
2019-06-20T14:40:25.298Z,20.40
2019-06-20T14:42:54.979Z,20.20
2019-06-20T14:45:24.732Z,20.10
2019-06-20T14:47:55.236Z,20.00
2019-06-20T14:50:25.401Z,19.90
2019-06-20T14:52:54.868Z,20.00
2019-06-20T14:55:24.381Z,20.00
2019-06-20T14:57:54.643Z,20.00
2019-06-20T15:00:25.534Z,20.10
2019-06-20T15:02:58.420Z,20.20
2019-06-20T15:05:26.424Z,20.30
2019-06-20T15:07:56.123Z,20.40
2019-06-20T15:10:25.731Z,20.50
2019-06-20T15:12:55.980Z,20.70
2019-06-20T15:15:25.776Z,20.80
2019-06-20T15:17:57.459Z,21.00
2019-06-20T15:20:26.578Z,21.10
2019-06-20T15:22:56.601Z,21.30
2019-06-20T15:25:26.409Z,21.40
2019-06-20T15:27:57.375Z,21.40
2019-06-20T15:30:27.081Z,21.30
2019-06-20T15:33:07.503Z,21.30
2019-06-20T15:35:27.912Z,21.30
2019-06-20T15:37:57.850Z,21.10
2019-06-20T15:40:27.523Z,21.00
2019-06-20T15:42:58.721Z,20.90
2019-06-20T15:45:28.060Z,20.90
2019-06-20T15:47:57.466Z,20.70
2019-06-20T15:50:26.926Z,20.70
2019-06-20T15:52:56.360Z,20.70
2019-06-20T15:55:25.733Z,20.60
2019-06-20T15:57:55.170Z,20.60
2019-06-20T16:00:24.964Z,20.60
2019-06-20T16:03:08.799Z,20.80
2019-06-20T16:05:25.707Z,20.90
2019-06-20T16:07:55.193Z,21.10
2019-06-20T16:10:24.799Z,21.30
2019-06-20T16:12:54.358Z,21.30
2019-06-20T16:15:24.727Z,21.20
2019-06-20T16:17:54.328Z,21.00
2019-06-20T16:20:23.856Z,20.80
2019-06-20T16:22:53.319Z,20.70
2019-06-20T16:25:23.020Z,20.70
2019-06-20T16:27:54.337Z,20.70
2019-06-20T16:30:24.837Z,20.70
2019-06-20T16:32:54.335Z,20.90
2019-06-20T16:35:24.107Z,21.00
2019-06-20T16:37:53.498Z,20.90
2019-06-20T16:40:44.806Z,20.80
2019-06-20T16:43:14.335Z,20.80
2019-06-20T16:45:44.019Z,20.70
2019-06-20T16:48:13.818Z,20.60
2019-06-20T16:50:43.368Z,20.40
2019-06-20T16:53:12.857Z,20.40
2019-06-20T16:55:42.682Z,20.30
2019-06-20T16:58:12.241Z,20.20
2019-06-20T17:00:42.289Z,20.20
2019-06-20T17:03:11.834Z,20.20
2019-06-20T17:05:41.572Z,20.10
2019-06-20T17:08:11.046Z,20.00
2019-06-20T17:10:40.610Z,19.80
2019-06-20T17:13:10.121Z,19.70
2019-06-20T17:15:39.536Z,19.50
2019-06-20T17:18:09.078Z,19.40
2019-06-20T17:20:38.538Z,19.40
2019-06-20T17:23:08.040Z,19.30
2019-06-20T17:25:37.430Z,19.40
2019-06-20T17:28:07.052Z,19.40
2019-06-20T17:30:36.863Z,19.40
2019-06-20T17:33:06.614Z,19.30
2019-06-20T17:35:36.032Z,19.30
2019-06-20T17:38:05.682Z,19.20
2019-06-20T17:40:35.334Z,19.30
2019-06-20T17:43:04.895Z,19.40
2019-06-20T17:45:34.284Z,19.40
2019-06-20T17:48:03.706Z,19.50
2019-06-20T17:50:33.111Z,19.50
2019-06-20T17:53:02.685Z,19.50
2019-06-20T17:55:32.083Z,19.60
2019-06-20T17:58:01.481Z,19.50
2019-06-20T18:00:31.236Z,19.50
2019-06-20T18:03:00.826Z,19.50
2019-06-20T18:05:30.308Z,19.60
2019-06-20T18:08:14.121Z,19.60
2019-06-20T18:10:31.048Z,19.60
2019-06-20T18:13:00.466Z,19.50
2019-06-20T18:15:33.736Z,19.40
2019-06-20T18:18:01.238Z,19.40
2019-06-20T18:20:30.664Z,19.40
2019-06-20T18:23:00.144Z,19.40
2019-06-20T18:25:31.786Z,19.40
2019-06-20T18:28:00.689Z,19.40
2019-06-20T18:30:44.816Z,19.30
2019-06-20T18:33:14.838Z,19.30
2019-06-20T18:35:44.417Z,19.20
2019-06-20T18:38:13.871Z,19.10
2019-06-20T18:40:43.336Z,19.00
2019-06-20T18:43:12.824Z,19.00
2019-06-20T18:45:42.378Z,18.90
2019-06-20T18:48:12.146Z,18.90
2019-06-20T18:50:41.591Z,18.80
2019-06-20T18:53:11.144Z,18.70
2019-06-20T18:55:40.530Z,18.70
2019-06-20T18:58:10.095Z,18.60
2019-06-20T19:00:39.673Z,18.50
2019-06-20T19:03:09.144Z,18.50
2019-06-20T19:05:38.522Z,18.40
2019-06-20T19:08:07.968Z,18.40
2019-06-20T19:10:37.370Z,18.30
2019-06-20T19:13:06.878Z,18.30
2019-06-20T19:15:36.372Z,18.30
2019-06-20T19:18:05.947Z,18.30
2019-06-20T19:20:35.339Z,18.30
2019-06-20T19:23:04.900Z,18.30
2019-06-20T19:25:34.299Z,18.20
2019-06-20T19:28:04.041Z,18.20
2019-06-20T19:30:38.068Z,18.10
2019-06-20T19:33:07.480Z,18.10
2019-06-20T19:35:36.884Z,18.10
2019-06-20T19:38:06.395Z,18.10
2019-06-20T19:40:40.384Z,18.10
2019-06-20T19:43:09.868Z,18.10
2019-06-20T19:45:39.325Z,18.00
2019-06-20T19:48:08.782Z,17.90
2019-06-20T19:50:38.336Z,17.80
2019-06-20T19:53:08.340Z,17.80
2019-06-20T19:55:38.301Z,17.80
2019-06-20T19:58:08.029Z,17.70
2019-06-20T20:00:37.527Z,17.60
2019-06-20T20:03:07.092Z,17.60
2019-06-20T20:05:36.697Z,17.60
2019-06-20T20:08:07.025Z,17.60
2019-06-20T20:10:46.885Z,17.50
2019-06-20T20:13:17.888Z,17.50
2019-06-20T20:15:47.919Z,17.40
2019-06-20T20:18:17.859Z,17.30
2019-06-20T20:20:48.508Z,17.30
2019-06-20T20:23:18.004Z,17.20
2019-06-20T20:25:47.566Z,17.10
2019-06-20T20:28:17.054Z,17.00
2019-06-20T20:30:47.382Z,17.00
2019-06-20T20:33:16.866Z,16.90
2019-06-20T20:35:46.325Z,16.80
2019-06-20T20:38:15.896Z,16.70
2019-06-20T20:40:45.389Z,16.60
2019-06-20T20:43:14.851Z,16.50
2019-06-20T20:45:44.404Z,16.40
2019-06-20T20:48:13.900Z,16.30
2019-06-20T20:50:43.563Z,16.30
2019-06-20T20:53:12.972Z,16.20
2019-06-20T20:55:42.528Z,16.10
2019-06-20T20:58:12.004Z,16.10
2019-06-20T21:01:16.192Z,16.10
2019-06-20T21:03:45.747Z,16.10
2019-06-20T21:06:15.300Z,16.10
2019-06-20T21:08:44.736Z,16.10
2019-06-20T21:11:14.197Z,16.20
2019-06-20T21:13:43.643Z,16.20
2019-06-20T21:16:13.108Z,16.30
2019-06-20T21:18:42.516Z,16.30
2019-06-20T21:21:12.020Z,16.30
2019-06-20T21:23:41.416Z,16.40
2019-06-20T21:26:10.835Z,16.40
2019-06-20T21:28:40.238Z,16.40
2019-06-20T21:31:09.682Z,16.40
2019-06-20T21:33:39.053Z,16.50
2019-06-20T21:36:09.340Z,16.50
2019-06-20T21:38:38.841Z,16.40
2019-06-20T21:41:08.318Z,16.40
2019-06-20T21:43:37.730Z,16.30
2019-06-20T21:46:07.724Z,16.30
2019-06-20T21:48:37.127Z,16.30
2019-06-20T21:51:06.592Z,16.30
2019-06-20T21:53:36.009Z,16.30
2019-06-20T21:56:05.559Z,16.30
2019-06-20T21:58:34.949Z,16.30
2019-06-20T22:01:06.147Z,16.20
2019-06-20T22:03:35.691Z,16.20
2019-06-20T22:06:05.406Z,16.10
2019-06-20T22:08:34.867Z,16.10
2019-06-20T22:11:04.410Z,16.00
2019-06-20T22:13:33.829Z,15.90
2019-06-20T22:16:03.227Z,15.90
2019-06-20T22:18:32.688Z,15.80
2019-06-20T22:21:02.105Z,15.70
2019-06-20T22:23:31.509Z,15.60
2019-06-20T22:26:00.908Z,15.50
2019-06-20T22:28:30.288Z,15.50
2019-06-20T22:30:59.821Z,15.40
2019-06-20T22:33:29.279Z,15.40
2019-06-20T22:35:58.766Z,15.30
2019-06-20T22:38:28.161Z,15.30
2019-06-20T22:40:57.565Z,15.30
2019-06-20T22:43:26.952Z,15.30
2019-06-20T22:45:56.377Z,15.30
2019-06-20T22:48:25.778Z,15.30
2019-06-20T22:50:55.263Z,15.40
2019-06-20T22:53:24.819Z,15.30
2019-06-20T22:55:54.189Z,15.30
2019-06-20T22:58:23.598Z,15.40
2019-06-20T23:00:52.997Z,15.30
2019-06-20T23:03:22.473Z,15.30
2019-06-20T23:05:51.861Z,15.30
2019-06-20T23:08:21.261Z,15.20
2019-06-20T23:10:50.774Z,15.10
2019-06-20T23:13:20.216Z,15.10
2019-06-20T23:15:49.607Z,15.10
2019-06-20T23:18:19.087Z,15.00
2019-06-20T23:21:04.038Z,15.00
2019-06-20T23:23:19.766Z,15.00
2019-06-20T23:25:50.815Z,14.90
2019-06-20T23:28:20.226Z,14.90
2019-06-20T23:30:49.715Z,14.80
2019-06-20T23:33:19.114Z,14.80
2019-06-20T23:35:48.573Z,14.80
2019-06-20T23:38:17.993Z,14.80
2019-06-20T23:40:47.373Z,14.80
2019-06-20T23:43:16.798Z,14.80
2019-06-20T23:45:46.256Z,14.90
2019-06-20T23:48:15.735Z,14.80
2019-06-20T23:50:45.207Z,14.80
2019-06-20T23:53:19.027Z,14.80
2019-06-20T23:55:48.516Z,14.80
2019-06-20T23:58:18.028Z,14.90
